John N — WDH8848 — position and weather

sailwx.info

Track history (hours):
 
Tides and Currents Weather Stations Pressure Air Temp Water Temp Dewpoint Dewpoint Depression Visibility Wind Speed Wind Dir Waves Ship Positions

John N

Owner: Surfside Seafood Products, LLC, Dorchester, NJ. More information available from US FCC via Universal Licensing System and Coast Guard Vessel Documentation Center.

Last reported at 2017-Nov-02 08:40 UTC. Time now 2017-Nov-22 05:41 UTC.
Position N 39°17' W 074°22'.
Warning: this ship's position is 19 days out of date.

Length 34 m.

Type: Fishing. MMSI: 367662110.

Date/timePositionNaut miles runAvg speedWind from/ knotsBaromVisibWave heightAir tempDewpointWater temp
2017-Nov-02 08:40N 39°17' W 074°22'210.4
2017-Nov-02 08:30N 39°16' W 074°22'610.5
2017-Nov-02 07:54N 39°10' W 074°19'4 6.9
2017-Nov-02 07:17N 39°06' W 074°18'3 8.4
2017-Nov-02 06:59N 39°03' W 074°17'5 9.8
2017-Nov-02 06:30N 38°59' W 074°15'11 9.7
2017-Nov-02 05:23N 38°48' W 074°11'2 4.7
2017-Nov-02 05:00N 38°46' W 074°11'2 3.4
2017-Nov-02 04:27N 38°45' W 074°12'2 3.4
2017-Nov-02 04:00N 38°43' W 074°12'2 3.2
2017-Nov-02 03:30N 38°42' W 074°11'  
2017-Oct-25 04:44N 39°22' W 074°25'  
Track history (hours):
 
Tides and Currents Weather Stations Pressure Air Temp Water Temp Dewpoint Dewpoint Depression Visibility Wind Speed Wind Dir Waves Ship Positions

John N

Owner: Surfside Seafood Products, LLC, Dorchester, NJ. More information available from US FCC via Universal Licensing System and Coast Guard Vessel Documentation Center.

Last reported at 2017-Nov-02 08:40 UTC. Time now 2017-Nov-22 05:41 UTC.
Position N 39°17' W 074°22'.
Warning: this ship's position is 19 days out of date.

Length 34 m.

Type: Fishing. MMSI: 367662110.

Date/timePositionNaut miles runAvg speedWind from/ knotsBaromVisibWave heightAir tempDewpointWater temp
2017-Nov-02 08:40N 39°17' W 074°22'210.4
2017-Nov-02 08:30N 39°16' W 074°22'610.5
2017-Nov-02 07:54N 39°10' W 074°19'4 6.9
2017-Nov-02 07:17N 39°06' W 074°18'3 8.4
2017-Nov-02 06:59N 39°03' W 074°17'5 9.8
2017-Nov-02 06:30N 38°59' W 074°15'11 9.7
2017-Nov-02 05:23N 38°48' W 074°11'2 4.7
2017-Nov-02 05:00N 38°46' W 074°11'2 3.4
2017-Nov-02 04:27N 38°45' W 074°12'2 3.4
2017-Nov-02 04:00N 38°43' W 074°12'2 3.2
2017-Nov-02 03:30N 38°42' W 074°11'  
2017-Oct-25 04:44N 39°22' W 074°25'  

Dump ship's entire track history